Camp Pendleton, CA (92055)

8:04 AM PDT on July 30, 2016 (GMT -0700)
Back Gate | | Change Station

Elev 125 ft 33.27 °N, 117.30 °W | Updated 5 minutes ago

Haze
Haze
70.0 °F
Feels Like 70.0 °F
N
0.0
Wind Variable Wind from NE
Gusts 0.0 mph

Today
High -- | Low -- °F
--% Chance of Precip.
Yesterday
High -- | Low -- °F
Precip. -- in
Pressure 29.88 in
Visibility 5.0 miles
Clouds Mostly Cloudy 1000 ft
Dew Point 67 °F
Humidity 91%
Rainfall 0.00 in
Snow Depth Not available.
6:01 AM 7:49 PM
Waning Crescent, 13% visible
METAR KNFG 301455Z 00000KT 5SM HZ BKN010 21/18 A2988 RMK AO2 SLP116 T02110183 53024 $
Pressure 29.88 in
Visibility 5.0 miles
Clouds Mostly Cloudy 1000 ft
Dew Point 67 °F
Humidity 91%
Rainfall 0.00 in
Snow Depth Not available.
6:01 AM 7:49 PM
Waning Crescent, 13% visible
METAR KNFG 301455Z 00000KT 5SM HZ BKN010 21/18 A2988 RMK AO2 SLP116 T02110183 53024 $

10-Day Weather Forecast

Almanac

Astronomy

Jul. 30, 2016 Rise Set
Actual Time
Civil Twilight
Nautical Twilight
Astronomical Twilight
Moon
Length of Visible Light
Length of Day
Tomorrow will be .
, % of the Moon is Illuminated

Today's Extremes

State Highs State Lows

Community

WunderPhotos

Upload Photos

1,928,568 photos uploaded!

WunderBlog® & News

Nearby

Air Quality

  Air Quality AQ Index Pollutant
Not available.

Snow Depth

Station Depth Elevation

Earthquake Activity

City Distance Mag. Time & Date
Minimum magnitude displayed is 2.5.

Coastal Water Temperatures

Place Temperature

Stations

Nearby Weather Stations

Station Location Temp. Windchill Dew Point Humidity Wind Precip. Elev Updated Type
                   

Watches & Warnings

There are currently no watches in effect.